Time;durP1;ratioP1;P1;durP2;ratioP2;P2;SDS_P1;SDS_P2;PMS_P1;PMS_P2;Temp;Humidity;BMP_temperature;BMP_pressure;BME280_temperature;BME280_humidity;BME280_pressure;Samples;Min_cycle;Max_cycle;Signal;HPM_P1;HPM_P2
2024/03/27 00:01:10;;;;;;;13.23;7.43;;;;;;;15.73;64.94;98543.81;5054967;28;20033;-44
2024/03/27 00:03:39;;;;;;;17.70;7.53;;;;;;;15.92;64.75;98536.81;5054251;28;20186;-46
2024/03/27 00:06:04;;;;;;;14.82;7.10;;;;;;;15.85;65.29;98534.53;5056790;28;20092;-47
2024/03/27 00:08:31;;;;;;;15.75;7.28;;;;;;;15.85;65.95;98529.28;5054416;28;20061;-43
2024/03/27 00:10:56;;;;;;;13.25;6.22;;;;;;;15.87;65.70;98524.78;5051063;28;20033;-46
2024/03/27 00:13:22;;;;;;;9.65;5.88;;;;;;;15.85;66.34;98527.50;5052980;28;20090;-46
2024/03/27 00:15:51;;;;;;;11.98;5.70;;;;;;;15.93;66.26;98530.63;5054149;28;20419;-44
2024/03/27 00:18:17;;;;;;;11.77;5.85;;;;;;;15.96;66.99;98525.25;5054410;28;20033;-45
2024/03/27 00:20:43;;;;;;;13.05;5.60;;;;;;;15.81;68.28;98520.66;5053264;28;20059;-47
2024/03/27 00:23:08;;;;;;;12.02;5.20;;;;;;;15.98;67.62;98519.94;5052522;28;20090;-46
2024/03/27 00:25:33;;;;;;;10.88;4.97;;;;;;;15.77;68.99;98517.34;5051747;28;20107;-49
2024/03/27 00:27:59;;;;;;;9.07;4.78;;;;;;;15.86;69.33;98512.59;5051590;28;20404;-46
2024/03/27 00:30:24;;;;;;;10.43;4.82;;;;;;;15.84;69.46;98515.28;5051542;28;20045;-45
2024/03/27 00:32:49;;;;;;;7.97;4.60;;;;;;;15.88;69.55;98510.75;5051336;28;20025;-44
2024/03/27 00:35:15;;;;;;;11.25;4.60;;;;;;;15.86;69.85;98517.88;5052150;28;20061;-44
2024/03/27 00:37:40;;;;;;;9.15;4.30;;;;;;;15.77;70.47;98509.47;5051013;28;20033;-44
2024/03/27 00:40:08;;;;;;;9.80;4.63;;;;;;;15.77;71.20;98509.47;5051666;28;20033;-44
2024/03/27 00:42:34;;;;;;;11.27;4.50;;;;;;;15.81;71.44;98505.75;5050771;28;20043;-48
2024/03/27 00:45:00;;;;;;;12.73;4.40;;;;;;;15.83;71.21;98508.31;5051417;28;20032;-46
2024/03/27 00:47:26;;;;;;;6.60;4.18;;;;;;;15.83;71.43;98503.94;5051577;28;20044;-46
2024/03/27 00:49:51;;;;;;;8.13;4.25;;;;;;;15.87;71.49;98507.25;5051338;28;20029;-46
2024/03/27 00:52:16;;;;;;;8.43;4.18;;;;;;;15.96;71.56;98511.25;5052215;28;20033;-44
2024/03/27 00:54:42;;;;;;;8.48;4.15;;;;;;;15.89;71.53;98505.41;5051162;28;20025;-45
2024/03/27 00:57:07;;;;;;;8.68;4.25;;;;;;;15.78;72.29;98505.91;5050130;28;20399;-44
2024/03/27 00:59:33;;;;;;;10.05;4.20;;;;;;;15.87;72.55;98498.53;5050611;28;20525;-45
2024/03/27 01:01:58;;;;;;;8.18;3.97;;;;;;;15.74;73.42;98496.44;5050721;28;20063;-46
2024/03/27 01:04:24;;;;;;;10.75;4.30;;;;;;;16.00;71.71;98492.63;5050681;28;20045;-44
2024/03/27 01:06:49;;;;;;;8.48;3.90;;;;;;;16.07;71.61;98486.19;5050411;28;20495;-45
2024/03/27 01:09:14;;;;;;;10.25;3.90;;;;;;;15.99;71.80;98487.44;5050769;28;20053;-45
2024/03/27 01:11:40;;;;;;;8.57;3.60;;;;;;;15.83;73.01;98488.16;5049830;28;20120;-46
2024/03/27 01:14:05;;;;;;;7.10;3.60;;;;;;;15.95;72.69;98486.75;5050279;28;20037;-46
2024/03/27 01:16:30;;;;;;;6.93;3.55;;;;;;;15.79;73.05;98486.63;5050196;28;20045;-46
2024/03/27 01:18:56;;;;;;;8.32;3.75;;;;;;;15.71;73.68;98475.59;5050891;28;20037;-46
2024/03/27 01:21:21;;;;;;;10.52;3.42;;;;;;;15.99;72.35;98477.78;5050391;28;20076;-46
2024/03/27 01:23:46;;;;;;;6.80;3.17;;;;;;;15.74;72.75;98475.44;5050033;28;20041;-45
2024/03/27 01:26:11;;;;;;;8.82;3.55;;;;;;;15.75;72.62;98471.88;5050481;28;20037;-45
2024/03/27 01:28:37;;;;;;;7.13;3.30;;;;;;;15.88;71.71;98471.31;5050350;28;20037;-46
2024/03/27 01:31:03;;;;;;;9.48;3.20;;;;;;;16.17;71.22;98473.44;5050754;28;20041;-45
2024/03/27 01:33:28;;;;;;;6.50;2.80;;;;;;;16.02;71.17;98466.28;5048860;28;20096;-45
2024/03/27 01:35:54;;;;;;;9.93;3.30;;;;;;;15.96;71.54;98462.19;5050140;28;20033;-44
2024/03/27 01:38:19;;;;;;;8.48;3.10;;;;;;;16.07;71.02;98469.56;5050785;28;20102;-47
2024/03/27 01:40:44;;;;;;;5.30;3.10;;;;;;;15.87;71.36;98462.59;5049906;28;20487;-46
2024/03/27 01:43:09;;;;;;;7.40;3.00;;;;;;;16.12;70.51;98465.78;5050396;28;20075;-46
2024/03/27 01:45:35;;;;;;;6.68;3.38;;;;;;;16.15;70.43;98457.75;5049688;28;20037;-48
2024/03/27 01:48:02;;;;;;;8.50;3.30;;;;;;;16.21;69.88;98461.88;5050586;28;20040;-46
2024/03/27 01:50:29;;;;;;;9.40;3.28;;;;;;;16.30;69.07;98455.31;5051760;28;20029;-45
2024/03/27 01:52:57;;;;;;;7.72;3.40;;;;;;;16.26;69.24;98454.63;5051437;28;20033;-44
2024/03/27 01:55:23;;;;;;;9.93;3.28;;;;;;;16.33;69.10;98448.13;5051282;28;20048;-45
2024/03/27 01:57:48;;;;;;;9.30;3.10;;;;;;;16.12;69.83;98436.00;5050336;28;20040;-46
2024/03/27 02:00:14;;;;;;;6.25;2.88;;;;;;;16.25;69.27;98429.25;5049429;28;20037;-45
2024/03/27 02:02:40;;;;;;;7.53;3.42;;;;;;;16.13;69.28;98425.44;5049729;28;20033;-46
2024/03/27 02:05:07;;;;;;;6.70;3.40;;;;;;;16.26;68.87;98424.84;5050039;28;20549;-44
2024/03/27 02:07:32;;;;;;;6.82;2.90;;;;;;;16.06;69.28;98426.66;5049776;28;20037;-45
2024/03/27 02:09:58;;;;;;;7.28;3.20;;;;;;;16.23;68.84;98424.06;5051341;28;20102;-44
2024/03/27 02:12:24;;;;;;;5.97;3.10;;;;;;;16.17;68.81;98419.09;5052321;28;20033;-44
2024/03/27 02:14:49;;;;;;;6.88;3.40;;;;;;;16.19;68.91;98419.03;5051599;28;20047;-47
2024/03/27 02:17:14;;;;;;;5.63;3.22;;;;;;;16.32;68.54;98409.63;5050207;28;20037;-45
2024/03/27 02:19:40;;;;;;;7.82;3.13;;;;;;;16.30;68.33;98408.84;5050784;28;20037;-48
2024/03/27 02:22:05;;;;;;;8.57;3.25;;;;;;;16.32;68.37;98414.03;5054293;28;20525;-44
2024/03/27 02:24:49;;;;;;;7.43;3.30;;;;;;;16.34;67.91;98414.81;5054897;28;20041;-46
2024/03/27 02:27:14;;;;;;;7.57;3.22;;;;;;;16.26;68.21;98422.22;5055615;28;20029;-44
2024/03/27 02:29:39;;;;;;;10.20;3.30;;;;;;;16.19;68.68;98432.16;5055074;28;20048;-47
2024/03/27 02:32:05;;;;;;;6.82;3.40;;;;;;;16.18;68.79;98425.19;5054403;28;20391;-46
2024/03/27 02:34:30;;;;;;;6.93;2.85;;;;;;;16.05;69.16;98427.56;5053060;28;20052;-46
2024/03/27 02:36:55;;;;;;;9.07;2.97;;;;;;;16.20;68.54;98426.84;5053722;28;20029;-44
2024/03/27 02:39:21;;;;;;;8.13;2.85;;;;;;;16.04;69.04;98432.91;5053933;28;20047;-44
2024/03/27 02:41:46;;;;;;;5.80;3.00;;;;;;;16.28;68.20;98430.88;5054084;28;20442;-44
2024/03/27 02:44:11;;;;;;;7.60;3.10;;;;;;;16.31;68.21;98434.22;5054737;28;20029;-45
2024/03/27 02:46:36;;;;;;;6.53;2.85;;;;;;;16.23;67.68;98424.06;5054634;28;20033;-46
2024/03/27 02:49:02;;;;;;;6.38;2.90;;;;;;;16.35;67.49;98425.22;5055444;28;20120;-45
2024/03/27 02:51:27;;;;;;;7.45;2.85;;;;;;;16.35;67.47;98414.72;5054533;28;20495;-44
2024/03/27 02:53:52;;;;;;;6.88;2.75;;;;;;;16.27;67.76;98410.78;5052877;28;20025;-45
2024/03/27 02:56:18;;;;;;;6.85;2.75;;;;;;;16.11;67.97;98413.28;5055840;28;20532;-44
2024/03/27 02:58:43;;;;;;;6.57;2.90;;;;;;;16.29;67.68;98408.91;5054728;28;20037;-47
2024/03/27 03:01:08;;;;;;;5.93;2.95;;;;;;;16.20;67.64;98411.06;5054012;28;20036;-44
2024/03/27 03:03:33;;;;;;;5.40;2.60;;;;;;;16.12;67.86;98404.47;5052852;28;20124;-48
2024/03/27 03:05:59;;;;;;;7.07;2.88;;;;;;;16.28;68.01;98405.44;5052982;28;20033;-48
2024/03/27 03:08:24;;;;;;;5.82;2.60;;;;;;;16.01;68.37;98401.50;5052933;28;20522;-45
2024/03/27 03:10:52;;;;;;;5.78;2.60;;;;;;;15.97;68.24;98403.44;5051252;28;20033;-45
2024/03/27 03:13:18;;;;;;;4.45;2.28;;;;;;;16.27;67.13;98387.97;5052741;28;20036;-43
2024/03/27 03:15:44;;;;;;;5.75;2.50;;;;;;;16.28;67.08;98387.03;5052216;28;20484;-46
2024/03/27 03:18:10;;;;;;;4.45;2.50;;;;;;;16.31;66.60;98386.88;5052632;28;20032;-44
2024/03/27 03:20:36;;;;;;;7.32;2.55;;;;;;;16.14;67.60;98400.00;5052082;28;20563;-47
2024/03/27 03:23:01;;;;;;;6.50;2.47;;;;;;;16.15;67.56;98391.19;5051174;28;20032;-45
2024/03/27 03:25:26;;;;;;;7.47;2.65;;;;;;;16.14;67.65;98394.75;5052592;28;20048;-45
2024/03/27 03:27:52;;;;;;;6.63;2.42;;;;;;;15.77;68.56;98399.13;5052215;28;20104;-45
2024/03/27 03:30:17;;;;;;;5.32;2.50;;;;;;;16.12;67.57;98407.09;5052857;28;20035;-46
2024/03/27 03:32:42;;;;;;;6.55;2.50;;;;;;;16.21;67.03;98397.00;5052358;28;20036;-44
2024/03/27 03:35:10;;;;;;;8.10;2.38;;;;;;;15.96;67.95;98399.13;5054057;28;20553;-45
2024/03/27 03:37:36;;;;;;;6.18;2.42;;;;;;;16.03;67.58;98415.44;5053316;28;20157;-46
2024/03/27 03:40:03;;;;;;;7.45;4.30;;;;;;;15.05;71.08;98450.53;5054677;28;20507;-44
2024/03/27 03:42:28;;;;;;;12.85;6.20;;;;;;;14.78;71.30;98452.53;5054461;28;20082;-44
2024/03/27 03:44:54;;;;;;;9.98;6.00;;;;;;;14.51;71.64;98451.06;5051359;28;20032;-44
2024/03/27 03:47:19;;;;;;;9.75;5.28;;;;;;;13.78;74.03;98459.19;5052392;28;20033;-45
2024/03/27 03:49:45;;;;;;;7.55;4.20;;;;;;;13.91;73.07;98468.25;5051975;28;20094;-46
2024/03/27 03:52:10;;;;;;;10.18;6.00;;;;;;;13.65;74.63;98468.41;5051011;28;20047;-46
2024/03/27 03:54:36;;;;;;;13.40;6.18;;;;;;;13.77;74.13;98471.41;5051334;28;20451;-45
2024/03/27 03:57:01;;;;;;;12.93;6.63;;;;;;;13.70;75.19;98472.56;5052910;28;20029;-45
2024/03/27 03:59:26;;;;;;;11.70;7.15;;;;;;;14.04;74.19;98469.50;5054641;28;20053;-43
2024/03/27 04:01:52;;;;;;;13.25;5.60;;;;;;;13.74;75.10;98470.66;5053595;28;20041;-48
2024/03/27 04:04:17;;;;;;;9.13;4.70;;;;;;;13.44;76.31;98472.66;5051929;28;20482;-45
2024/03/27 04:06:43;;;;;;;8.30;3.72;;;;;;;13.34;77.40;98472.16;5051232;28;20108;-48
2024/03/27 04:09:08;;;;;;;8.45;3.80;;;;;;;12.95;78.68;98479.59;5051864;28;20037;-47
2024/03/27 04:11:33;;;;;;;9.75;3.42;;;;;;;13.16;78.61;98470.19;5051072;28;20094;-45
2024/03/27 04:13:59;;;;;;;14.20;3.30;;;;;;;12.93;80.63;98473.53;5049908;28;20052;-44
2024/03/27 04:16:24;;;;;;;7.93;3.08;;;;;;;13.12;79.93;98463.34;5051179;28;20123;-47
2024/03/27 04:18:49;;;;;;;7.07;3.22;;;;;;;13.44;78.48;98461.34;5051546;28;20037;-43
2024/03/27 04:21:15;;;;;;;7.28;2.63;;;;;;;13.20;79.33;98463.94;5052206;28;20040;-46
2024/03/27 04:23:41;;;;;;;7.22;2.60;;;;;;;13.45;78.47;98455.19;5050634;28;20097;-45
2024/03/27 04:26:07;;;;;;;8.75;2.40;;;;;;;13.48;77.58;98449.88;5052177;28;20040;-44
2024/03/27 04:28:32;;;;;;;10.65;3.22;;;;;;;13.03;78.72;98447.94;5053670;28;20695;-46
2024/03/27 04:30:58;;;;;;;8.80;2.50;;;;;;;12.94;78.33;98437.78;5053327;28;20060;-44
2024/03/27 04:33:24;;;;;;;15.05;2.70;;;;;;;13.05;78.05;98435.69;5051416;28;20044;-46
2024/03/27 04:35:49;;;;;;;15.18;2.95;;;;;;;12.54;79.44;98435.69;5050666;28;20032;-44
2024/03/27 04:38:15;;;;;;;11.13;2.60;;;;;;;12.54;78.81;98436.56;5051210;28;20044;-44
2024/03/27 04:40:40;;;;;;;11.80;3.00;;;;;;;12.71;79.25;98437.72;5050681;28;20033;-45
2024/03/27 04:43:05;;;;;;;9.40;2.50;;;;;;;13.23;77.12;98440.28;5050766;28;20344;-44
2024/03/27 04:45:31;;;;;;;11.55;3.00;;;;;;;12.90;77.89;98457.97;5050654;28;20495;-47
2024/03/27 04:47:57;;;;;;;10.68;2.78;;;;;;;13.00;77.58;98455.88;5051190;28;20399;-45
2024/03/27 04:50:23;;;;;;;11.30;3.10;;;;;;;13.05;77.51;98464.44;5050599;28;20037;-45
2024/03/27 04:52:48;;;;;;;15.27;3.20;;;;;;;13.03;77.63;98463.63;5050223;28;20062;-45
2024/03/27 04:55:13;;;;;;;13.85;3.17;;;;;;;12.98;77.51;98476.88;5052336;28;20028;-45
2024/03/27 04:57:39;;;;;;;12.52;3.17;;;;;;;12.97;77.46;98484.78;5052462;28;20519;-43
2024/03/27 05:00:06;;;;;;;14.43;3.50;;;;;;;12.82;76.96;98482.66;5051627;28;20047;-47
2024/03/27 05:02:31;;;;;;;10.07;3.10;;;;;;;13.23;75.86;98495.22;5050260;28;20025;-45
2024/03/27 05:04:56;;;;;;;12.90;3.65;;;;;;;13.18;75.17;98504.97;5051654;28;20436;-44
2024/03/27 05:07:22;;;;;;;9.95;2.80;;;;;;;12.58;75.57;98518.31;5050986;28;20033;-44
2024/03/27 05:09:47;;;;;;;15.35;2.95;;;;;;;12.75;74.83;98517.75;5050418;28;20100;-46
2024/03/27 05:12:15;;;;;;;19.58;2.60;;;;;;;12.80;74.45;98521.09;5052275;28;20029;-45
2024/03/27 05:14:40;;;;;;;7.60;2.38;;;;;;;12.77;74.15;98523.81;5052787;28;20029;-46
2024/03/27 05:17:07;;;;;;;14.25;2.38;;;;;;;12.87;73.12;98520.81;5057556;28;20033;-45
2024/03/27 05:19:33;;;;;;;10.02;2.63;;;;;;;12.93;73.30;98525.84;5058938;28;20032;-46
2024/03/27 05:21:58;;;;;;;7.95;2.08;;;;;;;12.96;72.83;98522.28;5057808;28;20124;-44
2024/03/27 05:24:23;;;;;;;8.27;2.15;;;;;;;12.78;72.53;98523.75;5055963;28;20037;-43
2024/03/27 05:26:50;;;;;;;6.20;1.80;;;;;;;13.11;71.91;98511.31;5058083;28;20191;-46
2024/03/27 05:29:16;;;;;;;9.43;1.75;;;;;;;12.53;72.41;98517.59;5057007;28;20404;-44
2024/03/27 05:31:55;;;;;;;12.68;1.88;;;;;;;12.74;72.51;98509.09;5058272;28;20037;-45
2024/03/27 05:34:22;;;;;;;5.72;1.75;;;;;;;12.96;71.54;98503.97;5059467;28;20104;-43
2024/03/27 05:36:47;;;;;;;6.57;1.60;;;;;;;12.53;72.63;98502.78;5057233;28;20090;-44
2024/03/27 05:39:13;;;;;;;7.53;1.67;;;;;;;12.75;71.90;98507.31;5052806;28;20044;-45
2024/03/27 05:41:39;;;;;;;6.50;1.60;;;;;;;12.74;72.01;98511.69;5050984;28;20086;-45
2024/03/27 05:44:06;;;;;;;7.55;1.60;;;;;;;12.96;71.34;98517.06;5051127;28;20040;-44
2024/03/27 05:46:32;;;;;;;9.32;1.58;;;;;;;12.98;70.71;98523.97;5050684;28;20057;-44
2024/03/27 05:48:58;;;;;;;6.05;1.40;;;;;;;12.93;70.21;98536.31;5050621;28;20670;-46
2024/03/27 05:51:24;;;;;;;7.70;1.50;;;;;;;12.90;70.58;98541.66;5051447;28;20033;-44
2024/03/27 05:53:50;;;;;;;8.52;1.80;;;;;;;12.43;72.44;98522.28;5051765;28;20446;-43
2024/03/27 05:56:16;;;;;;;6.10;1.60;;;;;;;12.82;71.71;98514.91;5055225;28;20028;-44
2024/03/27 05:58:41;;;;;;;6.22;1.52;;;;;;;13.18;70.40;98511.97;5055008;28;20124;-45
2024/03/27 06:01:06;;;;;;;4.55;1.70;;;;;;;13.28;69.81;98516.00;5055990;28;20124;-43
2024/03/27 06:03:31;;;;;;;8.85;1.88;;;;;;;12.92;69.73;98512.84;5054423;28;20519;-44
2024/03/27 06:05:57;;;;;;;7.15;1.83;;;;;;;12.94;70.49;98516.25;5056622;28;20033;-45
2024/03/27 06:08:22;;;;;;;10.23;2.05;;;;;;;13.04;69.42;98520.28;5056988;28;20040;-44
2024/03/27 06:10:48;;;;;;;6.53;1.48;;;;;;;13.46;68.12;98536.28;5054760;28;20525;-45
2024/03/27 06:13:14;;;;;;;8.70;1.80;;;;;;;13.17;68.90;98546.91;5056132;28;20029;-46
2024/03/27 06:15:39;;;;;;;7.03;1.58;;;;;;;13.37;68.76;98560.13;5054927;28;20029;-44
2024/03/27 06:18:05;;;;;;;7.45;1.58;;;;;;;13.27;68.35;98571.84;5055551;28;20479;-44
2024/03/27 06:20:32;;;;;;;7.90;1.50;;;;;;;13.44;67.89;98559.03;5054218;28;20043;-45
2024/03/27 06:22:58;;;;;;;3.83;1.25;;;;;;;13.44;67.62;98571.25;5055060;28;20550;-45
2024/03/27 06:25:23;;;;;;;6.82;1.70;;;;;;;13.36;67.97;98581.97;5054190;28;20133;-45
2024/03/27 06:27:48;;;;;;;7.05;1.63;;;;;;;13.34;67.79;98592.53;5053459;28;20025;-44
2024/03/27 06:30:14;;;;;;;7.97;1.70;;;;;;;13.52;67.41;98590.19;5053836;28;20044;-45
2024/03/27 06:32:41;;;;;;;7.43;1.80;;;;;;;13.59;67.41;98583.81;5052990;28;20036;-43
2024/03/27 06:35:07;;;;;;;5.78;2.00;;;;;;;13.52;67.13;98577.09;5053301;28;20044;-46
2024/03/27 06:37:32;;;;;;;10.63;3.00;;;;;;;13.54;66.94;98576.09;5054228;28;20407;-44
2024/03/27 06:39:58;;;;;;;10.95;4.22;;;;;;;13.40;68.07;98573.13;5053769;28;20086;-44
2024/03/27 06:42:24;;;;;;;11.25;4.90;;;;;;;13.65;67.39;98571.38;5053529;28;20040;-44
2024/03/27 06:44:49;;;;;;;12.05;5.45;;;;;;;13.45;68.07;98581.69;5053230;28;20041;-45
2024/03/27 06:47:15;;;;;;;11.88;5.55;;;;;;;13.60;67.64;98582.91;5053710;28;20162;-46
2024/03/27 06:49:40;;;;;;;11.52;6.03;;;;;;;13.26;68.38;98591.06;5054164;28;20033;-44
2024/03/27 06:52:05;;;;;;;10.57;5.35;;;;;;;13.37;68.02;98587.16;5055307;28;20036;-45
2024/03/27 06:54:31;;;;;;;10.90;5.10;;;;;;;13.45;67.44;98586.06;5053891;28;20040;-46
2024/03/27 06:56:56;;;;;;;11.52;5.60;;;;;;;13.30;67.75;98588.28;5054627;28;20080;-47
2024/03/27 06:59:21;;;;;;;9.88;4.57;;;;;;;13.28;67.73;98591.88;5053588;28;20392;-46
2024/03/27 07:01:47;;;;;;;10.73;4.90;;;;;;;13.66;66.79;98595.78;5053538;28;20048;-46
2024/03/27 07:04:12;;;;;;;10.52;4.57;;;;;;;12.68;69.31;98594.69;5053294;28;20029;-43
2024/03/27 07:06:37;;;;;;;10.38;4.60;;;;;;;13.30;67.04;98596.13;5053656;28;20091;-47
2024/03/27 07:09:06;;;;;;;9.48;4.43;;;;;;;13.35;67.01;98594.25;5054300;28;20516;-45
2024/03/27 07:11:31;;;;;;;11.27;4.30;;;;;;;13.49;66.24;98600.75;5053152;28;20127;-44
2024/03/27 07:13:56;;;;;;;11.65;4.00;;;;;;;13.22;65.87;98606.03;5053490;28;20495;-45
2024/03/27 07:16:22;;;;;;;7.45;4.10;;;;;;;13.16;66.91;98607.97;5053371;28;20037;-43
2024/03/27 07:18:47;;;;;;;8.93;3.97;;;;;;;13.20;66.79;98614.81;5053734;28;20486;-44
2024/03/27 07:21:13;;;;;;;12.43;4.32;;;;;;;13.51;66.06;98606.78;5055218;28;20055;-43
2024/03/27 07:23:38;;;;;;;10.55;3.90;;;;;;;13.70;65.38;98605.25;5054570;28;20029;-43
2024/03/27 07:26:05;;;;;;;8.52;4.18;;;;;;;13.79;65.03;98611.00;5055094;28;20041;-44
2024/03/27 07:28:31;;;;;;;11.15;3.50;;;;;;;13.71;64.39;98607.81;5052933;28;20044;-45
2024/03/27 07:30:58;;;;;;;7.95;3.83;;;;;;;13.67;65.04;98615.81;5052673;28;20502;-45
2024/03/27 07:33:23;;;;;;;13.25;3.85;;;;;;;13.93;64.47;98630.59;5052296;28;20041;-45
2024/03/27 07:35:49;;;;;;;7.60;4.00;;;;;;;14.06;63.69;98637.13;5052108;28;20537;-45
2024/03/27 07:38:14;;;;;;;8.48;3.80;;;;;;;14.12;63.88;98644.75;5052133;28;20702;-43
2024/03/27 07:40:39;;;;;;;6.47;3.72;;;;;;;14.04;63.91;98657.25;5051514;28;20037;-46
2024/03/27 07:43:04;;;;;;;10.05;4.20;;;;;;;14.36;63.06;98666.59;5051705;28;20025;-46
2024/03/27 07:45:30;;;;;;;7.80;3.97;;;;;;;13.68;65.06;98660.28;5052484;28;20128;-48
2024/03/27 07:47:55;;;;;;;8.90;4.15;;;;;;;14.16;63.38;98660.31;5054205;28;20041;-45
2024/03/27 07:50:21;;;;;;;8.85;4.28;;;;;;;14.02;63.13;98656.50;5053694;28;20399;-44
2024/03/27 07:52:46;;;;;;;8.27;4.82;;;;;;;14.07;63.40;98655.41;5051690;28;20124;-45
2024/03/27 07:55:11;;;;;;;10.48;4.60;;;;;;;14.01;63.97;98658.25;5051369;28;20499;-45
2024/03/27 07:57:38;;;;;;;9.57;5.45;;;;;;;13.92;64.69;98663.81;5051165;28;20555;-45
2024/03/27 08:00:04;;;;;;;9.93;5.68;;;;;;;13.99;64.03;98664.44;5051994;28;20036;-44
2024/03/27 08:02:29;;;;;;;12.15;5.78;;;;;;;14.19;63.21;98668.06;5052018;28;20398;-45
2024/03/27 08:04:55;;;;;;;10.45;5.80;;;;;;;14.31;62.50;98658.03;5051184;28;20033;-44
2024/03/27 08:07:20;;;;;;;11.60;5.50;;;;;;;14.13;63.08;98659.56;5051707;28;20092;-46
2024/03/27 08:09:52;;;;;;;9.65;5.07;;;;;;;14.21;63.49;98654.88;5051065;28;20048;-45
2024/03/27 08:12:17;;;;;;;10.02;5.40;;;;;;;14.38;62.68;98657.81;5053931;28;20033;-45
2024/03/27 08:14:45;;;;;;;9.00;4.45;;;;;;;14.03;62.36;98659.03;5053334;28;20033;-44
2024/03/27 08:17:11;;;;;;;9.70;4.78;;;;;;;13.70;63.50;98673.31;5051116;28;20137;-46
2024/03/27 08:19:40;;;;;;;11.43;4.72;;;;;;;13.82;63.22;98665.91;5050762;28;20562;-46
2024/03/27 08:22:09;;;;;;;12.73;5.47;;;;;;;13.84;63.64;98672.84;5051342;28;20368;-47
2024/03/27 08:24:35;;;;;;;11.15;5.00;;;;;;;13.99;63.42;98665.31;5050330;28;20037;-45
2024/03/27 08:27:01;;;;;;;10.85;5.20;;;;;;;14.22;62.46;98675.81;5051938;28;20035;-47
2024/03/27 08:29:27;;;;;;;11.05;5.55;;;;;;;14.19;62.74;98672.44;5051610;28;20053;-48
2024/03/27 08:31:52;;;;;;;11.48;6.32;;;;;;;14.35;61.85;98670.97;5050571;28;20056;-45
2024/03/27 08:34:17;;;;;;;9.95;6.13;;;;;;;14.54;61.60;98673.81;5050922;28;20025;-46
2024/03/27 08:36:42;;;;;;;11.70;6.22;;;;;;;14.67;60.53;98663.69;5050550;28;20491;-44
2024/03/27 08:39:09;;;;;;;10.75;6.60;;;;;;;14.76;60.12;98651.06;5052238;28;20068;-47
2024/03/27 08:41:35;;;;;;;15.38;7.00;;;;;;;14.85;59.50;98653.34;5050596;28;20040;-44
2024/03/27 08:44:03;;;;;;;10.05;6.38;;;;;;;15.24;58.88;98650.91;5050896;28;20060;-45
2024/03/27 08:46:28;;;;;;;10.50;6.43;;;;;;;15.23;57.92;98667.59;5050435;28;20036;-45
2024/03/27 08:48:54;;;;;;;11.50;6.95;;;;;;;15.00;58.19;98673.72;5052454;28;20040;-45
2024/03/27 08:51:20;;;;;;;12.15;7.32;;;;;;;15.24;58.00;98671.91;5052850;28;20061;-46
2024/03/27 08:53:47;;;;;;;16.15;8.07;;;;;;;15.23;58.18;98678.09;5052283;28;20451;-45
2024/03/27 08:56:13;;;;;;;11.07;7.72;;;;;;;15.25;57.28;98680.63;5052447;28;20091;-44
2024/03/27 08:58:39;;;;;;;11.90;7.70;;;;;;;15.22;57.15;98684.25;5051210;28;20434;-45
2024/03/27 09:01:04;;;;;;;13.57;8.05;;;;;;;14.96;58.96;98680.03;5052693;28;20071;-47
2024/03/27 09:03:30;;;;;;;12.65;8.27;;;;;;;14.81;60.24;98692.88;5053218;28;20029;-50
2024/03/27 09:05:56;;;;;;;13.27;8.38;;;;;;;15.02;60.41;98697.28;5053401;28;20072;-50
2024/03/27 09:08:21;;;;;;;13.02;7.47;;;;;;;14.06;62.34;98703.47;5053990;28;20033;-49
2024/03/27 09:10:47;;;;;;;10.80;7.05;;;;;;;14.28;61.63;98702.69;5052904;28;20056;-48
2024/03/27 09:13:12;;;;;;;11.52;6.18;;;;;;;14.49;60.91;98707.22;5053105;28;20033;-47
2024/03/27 09:15:37;;;;;;;9.63;4.95;;;;;;;13.88;61.39;98705.88;5051607;28;20033;-48
2024/03/27 09:18:03;;;;;;;8.13;5.15;;;;;;;14.72;60.84;98715.06;5054004;28;20040;-47
2024/03/27 09:20:28;;;;;;;7.82;4.85;;;;;;;14.88;60.15;98721.44;5053853;28;20048;-47
2024/03/27 09:22:53;;;;;;;9.15;4.53;;;;;;;14.93;59.05;98724.75;5052841;28;20040;-49
2024/03/27 09:25:19;;;;;;;7.43;4.35;;;;;;;14.87;58.67;98716.25;5053790;28;20112;-48
2024/03/27 09:27:44;;;;;;;7.18;4.40;;;;;;;14.87;57.54;98711.88;5052762;28;20687;-50
2024/03/27 09:30:10;;;;;;;8.73;4.93;;;;;;;14.23;58.47;98722.06;5053055;28;20036;-45
2024/03/27 09:32:36;;;;;;;7.43;4.68;;;;;;;14.78;57.97;98721.84;5051952;28;20033;-44
2024/03/27 09:35:01;;;;;;;7.10;4.72;;;;;;;14.75;58.15;98728.09;5053242;28;20128;-46
2024/03/27 09:37:26;;;;;;;7.47;4.30;;;;;;;14.85;57.79;98725.94;5052878;28;20033;-47
2024/03/27 09:39:52;;;;;;;8.25;4.50;;;;;;;15.14;57.67;98723.06;5052158;28;20079;-47
2024/03/27 09:42:17;;;;;;;8.57;4.47;;;;;;;15.19;57.10;98718.47;5051931;28;20072;-47
2024/03/27 09:44:43;;;;;;;7.32;4.55;;;;;;;15.48;56.37;98719.94;5051418;28;20426;-47
2024/03/27 09:47:11;;;;;;;8.60;4.45;;;;;;;15.62;55.05;98719.41;5052213;28;20457;-49
2024/03/27 09:49:36;;;;;;;9.05;4.85;;;;;;;15.29;54.90;98718.97;5051312;28;20065;-48
2024/03/27 09:52:03;;;;;;;8.68;4.70;;;;;;;14.94;56.08;98717.75;5051642;28;20053;-46
2024/03/27 09:54:32;;;;;;;7.15;4.35;;;;;;;15.26;55.47;98717.31;5050582;28;20037;-45
2024/03/27 09:56:59;;;;;;;8.52;4.63;;;;;;;15.61;55.04;98713.31;5050290;28;20079;-46
2024/03/27 09:59:24;;;;;;;9.25;4.57;;;;;;;16.02;55.07;98716.81;5050626;28;20507;-47
2024/03/27 10:02:00;;;;;;;8.55;4.47;;;;;;;15.22;55.11;98728.00;5050176;28;20063;-46
2024/03/27 10:04:25;;;;;;;8.55;4.53;;;;;;;15.48;54.66;98725.22;5049895;28;20037;-45
2024/03/27 10:06:54;;;;;;;8.63;4.93;;;;;;;15.39;54.93;98731.66;5049797;28;20070;-47
2024/03/27 10:09:20;;;;;;;8.60;4.95;;;;;;;15.89;54.03;98726.16;5050752;28;20112;-45
2024/03/27 10:11:45;;;;;;;7.88;5.03;;;;;;;15.03;54.77;98725.25;5049586;28;20044;-46
2024/03/27 10:14:11;;;;;;;9.73;4.95;;;;;;;15.47;54.31;98710.38;5049899;28;20032;-47
2024/03/27 10:16:36;;;;;;;8.52;5.07;;;;;;;14.73;55.39;98710.69;5050297;28;20124;-44
2024/03/27 10:19:01;;;;;;;10.60;5.32;;;;;;;15.00;56.65;98728.00;5050706;28;20060;-44
2024/03/27 10:21:28;;;;;;;7.85;5.05;;;;;;;15.61;54.90;98725.59;5051090;28;20037;-48
2024/03/27 10:23:53;;;;;;;10.45;5.20;;;;;;;15.61;53.55;98738.72;5049975;28;20029;-46
2024/03/27 10:26:19;;;;;;;8.48;5.60;;;;;;;15.61;52.97;98750.09;5051190;28;20037;-45
2024/03/27 10:28:44;;;;;;;7.78;5.22;;;;;;;15.59;53.34;98753.69;5051247;28;20037;-46
2024/03/27 10:31:10;;;;;;;9.35;5.57;;;;;;;15.59;53.15;98761.56;5054666;28;20399;-44
2024/03/27 10:33:35;;;;;;;7.78;5.60;;;;;;;15.26;53.27;98764.56;5054575;28;20184;-45
2024/03/27 10:36:02;;;;;;;12.98;6.20;;;;;;;15.31;54.08;98767.00;5054282;28;20118;-45
2024/03/27 10:38:28;;;;;;;9.43;5.88;;;;;;;15.16;53.84;98763.22;5051348;28;20057;-45
2024/03/27 10:40:57;;;;;;;8.63;5.82;;;;;;;15.71;52.66;98769.81;5052272;28;20033;-46
2024/03/27 10:43:25;;;;;;;10.88;5.88;;;;;;;15.15;53.66;98777.25;5058206;28;20032;-48
2024/03/27 10:45:52;;;;;;;10.23;6.15;;;;;;;15.42;53.40;98784.09;5060354;28;20891;-49
2024/03/27 10:48:18;;;;;;;11.68;6.18;;;;;;;15.27;53.50;98782.03;5062238;28;20048;-46
2024/03/27 10:50:46;;;;;;;9.35;6.03;;;;;;;15.47;53.70;98778.63;5057011;28;20492;-47
2024/03/27 10:53:14;;;;;;;9.10;6.13;;;;;;;15.60;52.60;98771.16;5052826;28;20031;-43
2024/03/27 10:55:40;;;;;;;11.45;6.40;;;;;;;15.40;52.88;98772.78;5053227;28;20029;-43
2024/03/27 10:58:07;;;;;;;9.35;6.20;;;;;;;15.79;52.35;98765.09;5053541;28;20116;-45
2024/03/27 11:00:33;;;;;;;10.30;6.20;;;;;;;15.88;53.00;98766.47;5035020;28;20049;-46
2024/03/27 11:02:58;;;;;;;8.43;6.03;;;;;;;16.14;51.27;98770.66;5053463;28;20449;-47
2024/03/27 11:05:27;;;;;;;10.65;5.93;;;;;;;16.57;49.78;98767.00;5053083;28;20033;-48
2024/03/27 11:07:54;;;;;;;8.77;5.90;;;;;;;16.46;49.08;98764.84;5052688;28;20402;-47
2024/03/27 11:10:24;;;;;;;9.75;6.22;;;;;;;16.66;48.46;98763.97;5052923;28;20526;-45
2024/03/27 11:12:49;;;;;;;9.65;6.20;;;;;;;16.42;48.87;98762.41;5052388;28;20412;-49
2024/03/27 11:15:15;;;;;;;11.27;6.30;;;;;;;16.81;48.56;98747.53;5052500;28;20028;-44
2024/03/27 11:17:53;;;;;;;9.82;6.40;;;;;;;16.82;49.26;98733.44;5052111;28;20040;-44
2024/03/27 11:20:24;;;;;;;10.57;6.97;;;;;;;16.72;49.57;98704.97;5052698;28;20028;-48
2024/03/27 11:22:53;;;;;;;10.45;6.45;;;;;;;16.94;49.09;98705.69;5052734;28;20565;-45